sensor_id;sensor_type;location;lat;lon;timestamp;P1;durP1;ratioP1;P2;durP2;ratioP2
13228;SDS011;6680;53.220;10.402;2023-10-19T00:02:09;8.93;;;6.67;;
13228;SDS011;6680;53.220;10.402;2023-10-19T00:04:40;9.17;;;6.10;;
13228;SDS011;6680;53.220;10.402;2023-10-19T00:07:07;12.70;;;5.73;;
13228;SDS011;6680;53.220;10.402;2023-10-19T00:09:40;8.97;;;5.90;;
13228;SDS011;6680;53.220;10.402;2023-10-19T00:12:10;8.03;;;6.30;;
13228;SDS011;6680;53.220;10.402;2023-10-19T00:14:38;7.00;;;6.10;;
13228;SDS011;6680;53.220;10.402;2023-10-19T00:17:03;8.40;;;6.00;;
13228;SDS011;6680;53.220;10.402;2023-10-19T00:19:35;8.50;;;6.33;;
13228;SDS011;6680;53.220;10.402;2023-10-19T00:22:04;7.77;;;6.30;;
13228;SDS011;6680;53.220;10.402;2023-10-19T00:24:40;9.20;;;6.00;;
13228;SDS011;6680;53.220;10.402;2023-10-19T00:27:06;9.40;;;6.60;;
13228;SDS011;6680;53.220;10.402;2023-10-19T00:29:41;7.90;;;5.80;;
13228;SDS011;6680;53.220;10.402;2023-10-19T00:32:13;9.80;;;6.17;;
13228;SDS011;6680;53.220;10.402;2023-10-19T00:34:40;10.60;;;6.73;;
13228;SDS011;6680;53.220;10.402;2023-10-19T00:37:08;8.20;;;6.17;;
13228;SDS011;6680;53.220;10.402;2023-10-19T00:39:36;10.63;;;6.43;;
13228;SDS011;6680;53.220;10.402;2023-10-19T00:42:10;8.90;;;6.07;;
13228;SDS011;6680;53.220;10.402;2023-10-19T00:44:40;9.13;;;6.53;;
13228;SDS011;6680;53.220;10.402;2023-10-19T00:47:08;9.37;;;6.23;;
13228;SDS011;6680;53.220;10.402;2023-10-19T00:49:38;10.40;;;6.17;;
13228;SDS011;6680;53.220;10.402;2023-10-19T00:52:05;7.27;;;6.17;;
13228;SDS011;6680;53.220;10.402;2023-10-19T00:54:37;8.23;;;6.43;;
13228;SDS011;6680;53.220;10.402;2023-10-19T00:57:13;10.10;;;6.40;;
13228;SDS011;6680;53.220;10.402;2023-10-19T00:59:45;6.93;;;5.50;;
13228;SDS011;6680;53.220;10.402;2023-10-19T01:02:18;9.10;;;5.60;;
13228;SDS011;6680;53.220;10.402;2023-10-19T01:04:47;8.37;;;6.67;;
13228;SDS011;6680;53.220;10.402;2023-10-19T01:07:21;13.20;;;6.67;;
13228;SDS011;6680;53.220;10.402;2023-10-19T01:09:52;8.30;;;6.23;;
13228;SDS011;6680;53.220;10.402;2023-10-19T01:12:23;9.50;;;6.83;;
13228;SDS011;6680;53.220;10.402;2023-10-19T01:15:05;10.20;;;6.00;;
13228;SDS011;6680;53.220;10.402;2023-10-19T01:17:35;7.97;;;6.20;;
13228;SDS011;6680;53.220;10.402;2023-10-19T01:20:08;9.47;;;6.27;;
13228;SDS011;6680;53.220;10.402;2023-10-19T01:22:51;8.33;;;6.10;;
13228;SDS011;6680;53.220;10.402;2023-10-19T01:25:46;9.77;;;5.87;;
13228;SDS011;6680;53.220;10.402;2023-10-19T01:28:25;6.70;;;6.03;;
13228;SDS011;6680;53.220;10.402;2023-10-19T01:31:06;7.77;;;6.47;;
13228;SDS011;6680;53.220;10.402;2023-10-19T01:33:33;7.63;;;6.23;;
13228;SDS011;6680;53.220;10.402;2023-10-19T01:36:00;9.33;;;6.30;;
13228;SDS011;6680;53.220;10.402;2023-10-19T01:38:52;8.50;;;6.27;;
13228;SDS011;6680;53.220;10.402;2023-10-19T01:41:19;12.10;;;6.93;;
13228;SDS011;6680;53.220;10.402;2023-10-19T01:43:47;11.50;;;6.90;;
13228;SDS011;6680;53.220;10.402;2023-10-19T01:46:16;10.00;;;6.50;;
13228;SDS011;6680;53.220;10.402;2023-10-19T01:48:47;11.27;;;6.33;;
13228;SDS011;6680;53.220;10.402;2023-10-19T01:51:19;8.47;;;6.63;;
13228;SDS011;6680;53.220;10.402;2023-10-19T01:53:46;10.20;;;6.60;;
13228;SDS011;6680;53.220;10.402;2023-10-19T01:56:15;9.87;;;6.03;;
13228;SDS011;6680;53.220;10.402;2023-10-19T01:58:42;8.33;;;6.37;;
13228;SDS011;6680;53.220;10.402;2023-10-19T02:01:11;11.27;;;6.93;;
13228;SDS011;6680;53.220;10.402;2023-10-19T02:03:44;10.57;;;7.27;;
13228;SDS011;6680;53.220;10.402;2023-10-19T02:06:12;8.23;;;6.43;;
13228;SDS011;6680;53.220;10.402;2023-10-19T02:08:45;10.03;;;7.07;;
13228;SDS011;6680;53.220;10.402;2023-10-19T02:11:15;10.23;;;6.97;;
13228;SDS011;6680;53.220;10.402;2023-10-19T02:13:46;9.90;;;6.37;;
13228;SDS011;6680;53.220;10.402;2023-10-19T02:16:14;9.00;;;6.87;;
13228;SDS011;6680;53.220;10.402;2023-10-19T02:18:42;8.97;;;6.73;;
13228;SDS011;6680;53.220;10.402;2023-10-19T02:21:09;8.40;;;6.47;;
13228;SDS011;6680;53.220;10.402;2023-10-19T02:23:37;10.70;;;5.93;;
13228;SDS011;6680;53.220;10.402;2023-10-19T02:26:04;8.50;;;5.97;;
13228;SDS011;6680;53.220;10.402;2023-10-19T02:28:34;14.70;;;7.13;;
13228;SDS011;6680;53.220;10.402;2023-10-19T02:31:02;7.53;;;6.13;;
13228;SDS011;6680;53.220;10.402;2023-10-19T02:33:40;7.20;;;6.20;;
13228;SDS011;6680;53.220;10.402;2023-10-19T02:36:10;9.67;;;7.40;;
13228;SDS011;6680;53.220;10.402;2023-10-19T02:38:40;12.87;;;6.73;;
13228;SDS011;6680;53.220;10.402;2023-10-19T02:41:10;11.80;;;7.47;;
13228;SDS011;6680;53.220;10.402;2023-10-19T02:43:37;9.60;;;6.67;;
13228;SDS011;6680;53.220;10.402;2023-10-19T02:46:05;8.67;;;6.43;;
13228;SDS011;6680;53.220;10.402;2023-10-19T02:48:32;12.73;;;7.20;;
13228;SDS011;6680;53.220;10.402;2023-10-19T02:51:00;10.90;;;7.13;;
13228;SDS011;6680;53.220;10.402;2023-10-19T02:53:31;10.07;;;7.50;;
13228;SDS011;6680;53.220;10.402;2023-10-19T02:56:04;11.10;;;7.53;;
13228;SDS011;6680;53.220;10.402;2023-10-19T02:58:36;15.10;;;8.13;;
13228;SDS011;6680;53.220;10.402;2023-10-19T03:01:11;10.47;;;6.83;;
13228;SDS011;6680;53.220;10.402;2023-10-19T03:03:39;10.47;;;7.10;;
13228;SDS011;6680;53.220;10.402;2023-10-19T03:06:08;12.30;;;7.03;;
13228;SDS011;6680;53.220;10.402;2023-10-19T03:08:35;15.27;;;7.33;;
13228;SDS011;6680;53.220;10.402;2023-10-19T03:11:01;10.50;;;8.20;;
13228;SDS011;6680;53.220;10.402;2023-10-19T03:13:29;12.20;;;8.07;;
13228;SDS011;6680;53.220;10.402;2023-10-19T03:15:59;11.50;;;7.70;;
13228;SDS011;6680;53.220;10.402;2023-10-19T03:18:25;12.30;;;7.37;;
13228;SDS011;6680;53.220;10.402;2023-10-19T03:20:53;14.77;;;7.73;;
13228;SDS011;6680;53.220;10.402;2023-10-19T03:23:19;10.20;;;7.90;;
13228;SDS011;6680;53.220;10.402;2023-10-19T03:25:53;11.33;;;7.83;;
13228;SDS011;6680;53.220;10.402;2023-10-19T03:28:37;12.33;;;8.27;;
13228;SDS011;6680;53.220;10.402;2023-10-19T03:31:07;13.00;;;8.37;;
13228;SDS011;6680;53.220;10.402;2023-10-19T03:33:33;12.47;;;8.13;;
13228;SDS011;6680;53.220;10.402;2023-10-19T03:36:01;11.53;;;7.27;;
13228;SDS011;6680;53.220;10.402;2023-10-19T03:38:28;12.67;;;7.53;;
13228;SDS011;6680;53.220;10.402;2023-10-19T03:40:59;11.07;;;7.53;;
13228;SDS011;6680;53.220;10.402;2023-10-19T03:43:31;10.33;;;7.60;;
13228;SDS011;6680;53.220;10.402;2023-10-19T03:46:01;11.50;;;7.27;;
13228;SDS011;6680;53.220;10.402;2023-10-19T03:48:32;11.03;;;8.00;;
13228;SDS011;6680;53.220;10.402;2023-10-19T03:51:03;12.90;;;8.33;;
13228;SDS011;6680;53.220;10.402;2023-10-19T03:53:30;13.60;;;7.47;;
13228;SDS011;6680;53.220;10.402;2023-10-19T03:55:58;12.30;;;8.33;;
13228;SDS011;6680;53.220;10.402;2023-10-19T03:58:25;13.47;;;7.73;;
13228;SDS011;6680;53.220;10.402;2023-10-19T04:00:54;11.93;;;8.33;;
13228;SDS011;6680;53.220;10.402;2023-10-19T04:03:26;11.67;;;7.73;;
13228;SDS011;6680;53.220;10.402;2023-10-19T04:05:57;11.50;;;7.70;;
13228;SDS011;6680;53.220;10.402;2023-10-19T04:08:28;12.47;;;8.60;;
13228;SDS011;6680;53.220;10.402;2023-10-19T04:11:00;11.87;;;8.40;;
13228;SDS011;6680;53.220;10.402;2023-10-19T04:13:46;12.93;;;8.43;;
13228;SDS011;6680;53.220;10.402;2023-10-19T04:16:18;13.10;;;8.17;;
13228;SDS011;6680;53.220;10.402;2023-10-19T04:18:45;11.40;;;8.37;;
13228;SDS011;6680;53.220;10.402;2023-10-19T04:21:14;13.20;;;8.47;;
13228;SDS011;6680;53.220;10.402;2023-10-19T04:23:41;12.50;;;8.57;;
13228;SDS011;6680;53.220;10.402;2023-10-19T04:26:08;13.67;;;9.93;;
13228;SDS011;6680;53.220;10.402;2023-10-19T04:28:37;13.13;;;9.00;;
13228;SDS011;6680;53.220;10.402;2023-10-19T04:31:10;13.23;;;8.73;;
13228;SDS011;6680;53.220;10.402;2023-10-19T04:33:40;16.80;;;8.80;;
13228;SDS011;6680;53.220;10.402;2023-10-19T04:36:10;11.57;;;9.13;;
13228;SDS011;6680;53.220;10.402;2023-10-19T04:38:40;15.40;;;8.97;;
13228;SDS011;6680;53.220;10.402;2023-10-19T04:41:09;16.63;;;9.00;;
13228;SDS011;6680;53.220;10.402;2023-10-19T04:43:37;12.70;;;8.70;;
13228;SDS011;6680;53.220;10.402;2023-10-19T04:46:05;13.60;;;9.53;;
13228;SDS011;6680;53.220;10.402;2023-10-19T04:48:37;16.53;;;9.77;;
13228;SDS011;6680;53.220;10.402;2023-10-19T04:51:06;12.23;;;9.07;;
13228;SDS011;6680;53.220;10.402;2023-10-19T04:53:34;14.77;;;9.03;;
13228;SDS011;6680;53.220;10.402;2023-10-19T04:56:02;14.83;;;10.07;;
13228;SDS011;6680;53.220;10.402;2023-10-19T04:58:29;17.47;;;10.40;;
13228;SDS011;6680;53.220;10.402;2023-10-19T05:00:56;12.60;;;9.13;;
13228;SDS011;6680;53.220;10.402;2023-10-19T05:03:24;13.93;;;9.27;;
13228;SDS011;6680;53.220;10.402;2023-10-19T05:05:51;14.67;;;8.97;;
13228;SDS011;6680;53.220;10.402;2023-10-19T05:08:18;15.23;;;9.67;;
13228;SDS011;6680;53.220;10.402;2023-10-19T05:10:45;12.37;;;9.33;;
13228;SDS011;6680;53.220;10.402;2023-10-19T05:13:15;15.47;;;9.77;;
13228;SDS011;6680;53.220;10.402;2023-10-19T05:15:41;16.60;;;9.50;;
13228;SDS011;6680;53.220;10.402;2023-10-19T05:18:09;15.93;;;9.90;;
13228;SDS011;6680;53.220;10.402;2023-10-19T05:20:35;15.10;;;9.47;;
13228;SDS011;6680;53.220;10.402;2023-10-19T05:23:05;12.93;;;8.23;;
13228;SDS011;6680;53.220;10.402;2023-10-19T05:25:33;18.90;;;9.57;;
13228;SDS011;6680;53.220;10.402;2023-10-19T05:28:01;14.33;;;8.97;;
13228;SDS011;6680;53.220;10.402;2023-10-19T05:30:29;14.03;;;9.33;;
13228;SDS011;6680;53.220;10.402;2023-10-19T05:32:57;14.80;;;9.63;;
13228;SDS011;6680;53.220;10.402;2023-10-19T05:35:24;15.37;;;9.47;;
13228;SDS011;6680;53.220;10.402;2023-10-19T05:37:51;13.07;;;8.60;;
13228;SDS011;6680;53.220;10.402;2023-10-19T05:40:19;17.20;;;10.03;;
13228;SDS011;6680;53.220;10.402;2023-10-19T05:42:47;11.80;;;8.47;;
13228;SDS011;6680;53.220;10.402;2023-10-19T05:45:14;14.23;;;8.97;;
13228;SDS011;6680;53.220;10.402;2023-10-19T05:47:43;17.20;;;9.47;;
13228;SDS011;6680;53.220;10.402;2023-10-19T05:50:10;14.10;;;9.50;;
13228;SDS011;6680;53.220;10.402;2023-10-19T05:52:40;11.00;;;9.10;;
13228;SDS011;6680;53.220;10.402;2023-10-19T05:55:07;15.13;;;9.33;;
13228;SDS011;6680;53.220;10.402;2023-10-19T05:57:35;13.43;;;9.60;;
13228;SDS011;6680;53.220;10.402;2023-10-19T06:00:05;13.93;;;8.80;;
13228;SDS011;6680;53.220;10.402;2023-10-19T06:02:37;12.83;;;9.70;;
13228;SDS011;6680;53.220;10.402;2023-10-19T06:05:06;16.30;;;10.37;;
13228;SDS011;6680;53.220;10.402;2023-10-19T06:07:34;16.30;;;8.60;;
13228;SDS011;6680;53.220;10.402;2023-10-19T06:10:00;14.47;;;9.67;;
13228;SDS011;6680;53.220;10.402;2023-10-19T06:12:29;15.77;;;9.03;;
13228;SDS011;6680;53.220;10.402;2023-10-19T06:14:56;13.63;;;9.10;;
13228;SDS011;6680;53.220;10.402;2023-10-19T06:17:23;17.33;;;10.07;;
13228;SDS011;6680;53.220;10.402;2023-10-19T06:19:50;12.53;;;7.77;;
13228;SDS011;6680;53.220;10.402;2023-10-19T06:22:18;15.00;;;9.23;;
13228;SDS011;6680;53.220;10.402;2023-10-19T06:24:45;12.47;;;9.17;;
13228;SDS011;6680;53.220;10.402;2023-10-19T06:27:12;12.83;;;9.30;;
13228;SDS011;6680;53.220;10.402;2023-10-19T06:29:39;13.47;;;9.60;;
13228;SDS011;6680;53.220;10.402;2023-10-19T06:32:06;12.93;;;8.70;;
13228;SDS011;6680;53.220;10.402;2023-10-19T06:34:33;14.90;;;9.00;;
13228;SDS011;6680;53.220;10.402;2023-10-19T06:37:00;13.47;;;8.63;;
13228;SDS011;6680;53.220;10.402;2023-10-19T06:39:30;16.10;;;9.57;;
13228;SDS011;6680;53.220;10.402;2023-10-19T06:41:57;12.20;;;8.97;;
13228;SDS011;6680;53.220;10.402;2023-10-19T06:44:24;11.43;;;8.53;;
13228;SDS011;6680;53.220;10.402;2023-10-19T06:46:51;15.87;;;8.97;;
13228;SDS011;6680;53.220;10.402;2023-10-19T06:49:17;12.07;;;9.10;;
13228;SDS011;6680;53.220;10.402;2023-10-19T06:51:44;15.33;;;9.30;;
13228;SDS011;6680;53.220;10.402;2023-10-19T06:54:11;17.70;;;9.83;;
13228;SDS011;6680;53.220;10.402;2023-10-19T06:56:39;15.80;;;8.60;;
13228;SDS011;6680;53.220;10.402;2023-10-19T06:59:06;14.53;;;9.53;;
13228;SDS011;6680;53.220;10.402;2023-10-19T07:01:33;14.87;;;10.07;;
13228;SDS011;6680;53.220;10.402;2023-10-19T07:04:01;12.70;;;8.27;;
13228;SDS011;6680;53.220;10.402;2023-10-19T07:06:28;16.20;;;9.40;;
13228;SDS011;6680;53.220;10.402;2023-10-19T07:08:55;15.20;;;9.33;;
13228;SDS011;6680;53.220;10.402;2023-10-19T07:11:23;15.00;;;9.57;;
13228;SDS011;6680;53.220;10.402;2023-10-19T07:13:51;13.77;;;8.97;;
13228;SDS011;6680;53.220;10.402;2023-10-19T07:16:18;13.33;;;9.30;;
13228;SDS011;6680;53.220;10.402;2023-10-19T07:18:45;14.87;;;9.97;;
13228;SDS011;6680;53.220;10.402;2023-10-19T07:21:12;15.83;;;10.00;;
13228;SDS011;6680;53.220;10.402;2023-10-19T07:23:39;12.57;;;9.13;;
13228;SDS011;6680;53.220;10.402;2023-10-19T07:26:06;12.57;;;9.93;;
13228;SDS011;6680;53.220;10.402;2023-10-19T07:28:33;18.37;;;9.83;;
13228;SDS011;6680;53.220;10.402;2023-10-19T07:31:02;15.53;;;9.37;;
13228;SDS011;6680;53.220;10.402;2023-10-19T07:33:28;18.10;;;9.97;;
13228;SDS011;6680;53.220;10.402;2023-10-19T07:35:55;15.77;;;9.60;;
13228;SDS011;6680;53.220;10.402;2023-10-19T07:38:25;13.30;;;8.67;;
13228;SDS011;6680;53.220;10.402;2023-10-19T07:40:53;15.53;;;9.93;;
13228;SDS011;6680;53.220;10.402;2023-10-19T07:43:21;15.13;;;9.40;;
13228;SDS011;6680;53.220;10.402;2023-10-19T07:45:48;11.07;;;9.00;;
13228;SDS011;6680;53.220;10.402;2023-10-19T07:48:18;14.40;;;9.33;;
13228;SDS011;6680;53.220;10.402;2023-10-19T07:50:45;13.13;;;8.60;;
13228;SDS011;6680;53.220;10.402;2023-10-19T07:53:12;17.63;;;10.20;;
13228;SDS011;6680;53.220;10.402;2023-10-19T07:55:39;13.67;;;9.17;;
13228;SDS011;6680;53.220;10.402;2023-10-19T07:58:08;16.00;;;9.87;;
13228;SDS011;6680;53.220;10.402;2023-10-19T08:00:35;15.97;;;10.33;;
13228;SDS011;6680;53.220;10.402;2023-10-19T08:03:03;21.27;;;10.90;;
13228;SDS011;6680;53.220;10.402;2023-10-19T08:05:32;18.80;;;10.43;;
13228;SDS011;6680;53.220;10.402;2023-10-19T08:07:59;19.70;;;11.27;;
13228;SDS011;6680;53.220;10.402;2023-10-19T08:10:28;15.60;;;10.70;;
13228;SDS011;6680;53.220;10.402;2023-10-19T08:12:55;17.67;;;10.80;;
13228;SDS011;6680;53.220;10.402;2023-10-19T08:15:24;18.33;;;10.00;;
13228;SDS011;6680;53.220;10.402;2023-10-19T08:17:51;16.97;;;10.80;;
13228;SDS011;6680;53.220;10.402;2023-10-19T08:20:20;18.80;;;10.57;;
13228;SDS011;6680;53.220;10.402;2023-10-19T08:22:57;16.80;;;10.00;;
13228;SDS011;6680;53.220;10.402;2023-10-19T08:25:26;17.97;;;10.13;;
13228;SDS011;6680;53.220;10.402;2023-10-19T08:27:53;17.27;;;11.00;;
13228;SDS011;6680;53.220;10.402;2023-10-19T08:30:22;16.83;;;10.50;;
13228;SDS011;6680;53.220;10.402;2023-10-19T08:32:50;19.40;;;10.47;;
13228;SDS011;6680;53.220;10.402;2023-10-19T08:35:19;17.30;;;10.80;;
13228;SDS011;6680;53.220;10.402;2023-10-19T08:37:49;15.87;;;10.97;;
13228;SDS011;6680;53.220;10.402;2023-10-19T08:40:17;17.30;;;11.60;;
13228;SDS011;6680;53.220;10.402;2023-10-19T08:42:46;15.07;;;11.37;;
13228;SDS011;6680;53.220;10.402;2023-10-19T08:45:14;20.47;;;10.93;;
13228;SDS011;6680;53.220;10.402;2023-10-19T08:47:43;14.17;;;10.33;;
13228;SDS011;6680;53.220;10.402;2023-10-19T08:50:13;17.97;;;10.70;;
13228;SDS011;6680;53.220;10.402;2023-10-19T08:52:41;16.23;;;11.33;;
13228;SDS011;6680;53.220;10.402;2023-10-19T08:55:09;20.43;;;11.10;;
13228;SDS011;6680;53.220;10.402;2023-10-19T08:57:40;18.57;;;11.40;;
13228;SDS011;6680;53.220;10.402;2023-10-19T09:00:08;20.07;;;11.57;;
13228;SDS011;6680;53.220;10.402;2023-10-19T09:02:36;15.90;;;10.67;;
13228;SDS011;6680;53.220;10.402;2023-10-19T09:05:06;13.73;;;10.30;;
13228;SDS011;6680;53.220;10.402;2023-10-19T09:07:34;15.47;;;10.30;;
13228;SDS011;6680;53.220;10.402;2023-10-19T09:10:01;14.03;;;10.93;;
13228;SDS011;6680;53.220;10.402;2023-10-19T09:12:30;16.43;;;11.03;;
13228;SDS011;6680;53.220;10.402;2023-10-19T09:14:59;16.00;;;11.23;;
13228;SDS011;6680;53.220;10.402;2023-10-19T09:17:28;15.60;;;11.27;;
13228;SDS011;6680;53.220;10.402;2023-10-19T09:19:57;16.53;;;11.10;;
13228;SDS011;6680;53.220;10.402;2023-10-19T09:22:24;17.57;;;11.23;;
13228;SDS011;6680;53.220;10.402;2023-10-19T09:24:52;18.73;;;11.70;;
13228;SDS011;6680;53.220;10.402;2023-10-19T09:27:20;17.00;;;11.40;;
13228;SDS011;6680;53.220;10.402;2023-10-19T09:29:47;16.30;;;10.63;;
13228;SDS011;6680;53.220;10.402;2023-10-19T09:32:16;18.33;;;10.83;;
13228;SDS011;6680;53.220;10.402;2023-10-19T09:34:44;18.07;;;11.63;;
13228;SDS011;6680;53.220;10.402;2023-10-19T09:37:12;16.27;;;11.37;;
13228;SDS011;6680;53.220;10.402;2023-10-19T09:39:42;16.70;;;11.20;;
13228;SDS011;6680;53.220;10.402;2023-10-19T09:42:10;16.40;;;11.63;;
13228;SDS011;6680;53.220;10.402;2023-10-19T09:44:42;18.40;;;11.57;;
13228;SDS011;6680;53.220;10.402;2023-10-19T09:47:10;17.50;;;11.30;;
13228;SDS011;6680;53.220;10.402;2023-10-19T09:49:40;16.17;;;11.97;;
13228;SDS011;6680;53.220;10.402;2023-10-19T09:52:08;17.47;;;12.13;;
13228;SDS011;6680;53.220;10.402;2023-10-19T09:54:42;16.53;;;11.80;;
13228;SDS011;6680;53.220;10.402;2023-10-19T09:57:17;15.77;;;10.47;;
13228;SDS011;6680;53.220;10.402;2023-10-19T09:59:49;18.40;;;11.30;;
13228;SDS011;6680;53.220;10.402;2023-10-19T10:02:21;18.27;;;12.47;;
13228;SDS011;6680;53.220;10.402;2023-10-19T10:04:50;20.23;;;12.77;;
13228;SDS011;6680;53.220;10.402;2023-10-19T10:07:17;15.40;;;11.37;;
13228;SDS011;6680;53.220;10.402;2023-10-19T10:09:45;17.00;;;11.27;;
13228;SDS011;6680;53.220;10.402;2023-10-19T10:12:18;17.67;;;11.17;;
13228;SDS011;6680;53.220;10.402;2023-10-19T10:14:52;17.03;;;12.17;;
13228;SDS011;6680;53.220;10.402;2023-10-19T10:17:22;15.20;;;11.37;;
13228;SDS011;6680;53.220;10.402;2023-10-19T10:19:51;18.50;;;12.23;;
13228;SDS011;6680;53.220;10.402;2023-10-19T10:22:21;19.70;;;12.43;;
13228;SDS011;6680;53.220;10.402;2023-10-19T10:24:53;18.17;;;11.50;;
13228;SDS011;6680;53.220;10.402;2023-10-19T10:27:21;17.77;;;11.83;;
13228;SDS011;6680;53.220;10.402;2023-10-19T10:29:55;15.43;;;11.77;;
13228;SDS011;6680;53.220;10.402;2023-10-19T10:35:10;15.77;;;11.07;;
13228;SDS011;6680;53.220;10.402;2023-10-19T10:38:17;16.37;;;12.33;;
13228;SDS011;6680;53.220;10.402;2023-10-19T10:40:44;18.23;;;12.07;;
13228;SDS011;6680;53.220;10.402;2023-10-19T10:43:12;18.10;;;12.90;;
13228;SDS011;6680;53.220;10.402;2023-10-19T10:45:40;20.47;;;13.57;;
13228;SDS011;6680;53.220;10.402;2023-10-19T10:48:11;19.47;;;12.87;;
13228;SDS011;6680;53.220;10.402;2023-10-19T10:50:38;18.10;;;11.77;;
13228;SDS011;6680;53.220;10.402;2023-10-19T10:53:07;18.27;;;12.90;;
13228;SDS011;6680;53.220;10.402;2023-10-19T10:55:37;18.03;;;13.17;;
13228;SDS011;6680;53.220;10.402;2023-10-19T10:58:05;20.07;;;13.07;;
13228;SDS011;6680;53.220;10.402;2023-10-19T11:00:32;17.27;;;12.70;;
13228;SDS011;6680;53.220;10.402;2023-10-19T11:03:00;20.03;;;12.77;;
13228;SDS011;6680;53.220;10.402;2023-10-19T11:05:28;21.17;;;12.77;;
13228;SDS011;6680;53.220;10.402;2023-10-19T11:08:04;18.63;;;12.70;;
13228;SDS011;6680;53.220;10.402;2023-10-19T11:10:34;22.23;;;15.03;;
13228;SDS011;6680;53.220;10.402;2023-10-19T11:13:03;19.40;;;13.50;;
13228;SDS011;6680;53.220;10.402;2023-10-19T11:15:31;20.27;;;14.20;;
13228;SDS011;6680;53.220;10.402;2023-10-19T11:17:58;21.60;;;14.30;;
13228;SDS011;6680;53.220;10.402;2023-10-19T11:20:25;19.20;;;12.57;;
13228;SDS011;6680;53.220;10.402;2023-10-19T11:22:53;20.33;;;13.17;;
13228;SDS011;6680;53.220;10.402;2023-10-19T11:25:22;18.70;;;12.83;;
13228;SDS011;6680;53.220;10.402;2023-10-19T11:27:53;23.60;;;15.03;;
13228;SDS011;6680;53.220;10.402;2023-10-19T11:30:24;24.63;;;14.70;;
13228;SDS011;6680;53.220;10.402;2023-10-19T11:32:56;18.40;;;14.27;;
13228;SDS011;6680;53.220;10.402;2023-10-19T11:35:24;24.60;;;14.97;;
13228;SDS011;6680;53.220;10.402;2023-10-19T11:37:53;19.93;;;14.67;;
13228;SDS011;6680;53.220;10.402;2023-10-19T11:40:21;20.57;;;13.57;;
13228;SDS011;6680;53.220;10.402;2023-10-19T11:42:50;20.83;;;14.03;;
13228;SDS011;6680;53.220;10.402;2023-10-19T11:45:17;22.87;;;13.93;;
13228;SDS011;6680;53.220;10.402;2023-10-19T11:47:46;20.87;;;13.80;;
13228;SDS011;6680;53.220;10.402;2023-10-19T11:50:13;21.57;;;14.90;;
13228;SDS011;6680;53.220;10.402;2023-10-19T11:52:40;20.50;;;14.03;;
13228;SDS011;6680;53.220;10.402;2023-10-19T11:55:08;22.87;;;16.07;;
13228;SDS011;6680;53.220;10.402;2023-10-19T11:57:35;20.57;;;14.50;;
13228;SDS011;6680;53.220;10.402;2023-10-19T12:00:02;19.07;;;14.13;;
13228;SDS011;6680;53.220;10.402;2023-10-19T12:02:34;23.03;;;14.97;;
13228;SDS011;6680;53.220;10.402;2023-10-19T12:05:04;21.23;;;14.07;;
13228;SDS011;6680;53.220;10.402;2023-10-19T12:07:34;23.50;;;16.50;;
13228;SDS011;6680;53.220;10.402;2023-10-19T12:10:02;21.47;;;16.07;;
13228;SDS011;6680;53.220;10.402;2023-10-19T12:12:30;21.97;;;14.03;;
13228;SDS011;6680;53.220;10.402;2023-10-19T12:14:57;22.67;;;15.17;;
13228;SDS011;6680;53.220;10.402;2023-10-19T12:17:24;24.63;;;15.67;;
13228;SDS011;6680;53.220;10.402;2023-10-19T12:19:52;22.73;;;14.77;;
13228;SDS011;6680;53.220;10.402;2023-10-19T12:22:21;23.10;;;15.27;;
13228;SDS011;6680;53.220;10.402;2023-10-19T12:24:49;20.23;;;15.37;;
13228;SDS011;6680;53.220;10.402;2023-10-19T12:27:16;21.97;;;14.87;;
13228;SDS011;6680;53.220;10.402;2023-10-19T12:29:44;19.40;;;14.40;;
13228;SDS011;6680;53.220;10.402;2023-10-19T12:32:11;21.50;;;15.60;;
13228;SDS011;6680;53.220;10.402;2023-10-19T12:34:40;23.13;;;14.60;;
13228;SDS011;6680;53.220;10.402;2023-10-19T12:37:07;19.67;;;14.40;;
13228;SDS011;6680;53.220;10.402;2023-10-19T12:39:36;20.03;;;14.27;;
13228;SDS011;6680;53.220;10.402;2023-10-19T12:42:08;19.77;;;13.90;;
13228;SDS011;6680;53.220;10.402;2023-10-19T12:44:35;17.77;;;13.63;;
13228;SDS011;6680;53.220;10.402;2023-10-19T12:47:06;20.17;;;14.53;;
13228;SDS011;6680;53.220;10.402;2023-10-19T12:49:35;17.70;;;12.37;;
13228;SDS011;6680;53.220;10.402;2023-10-19T12:52:02;20.40;;;13.40;;
13228;SDS011;6680;53.220;10.402;2023-10-19T12:54:29;17.43;;;12.60;;
13228;SDS011;6680;53.220;10.402;2023-10-19T12:56:57;18.87;;;12.00;;
13228;SDS011;6680;53.220;10.402;2023-10-19T12:59:24;17.60;;;12.83;;
13228;SDS011;6680;53.220;10.402;2023-10-19T13:01:51;17.57;;;13.43;;
13228;SDS011;6680;53.220;10.402;2023-10-19T13:04:23;19.13;;;12.10;;
13228;SDS011;6680;53.220;10.402;2023-10-19T13:06:49;17.27;;;12.57;;
13228;SDS011;6680;53.220;10.402;2023-10-19T13:09:16;18.47;;;12.07;;
13228;SDS011;6680;53.220;10.402;2023-10-19T13:11:47;19.43;;;12.60;;
13228;SDS011;6680;53.220;10.402;2023-10-19T13:14:18;18.53;;;12.57;;
13228;SDS011;6680;53.220;10.402;2023-10-19T13:16:45;20.97;;;13.83;;
13228;SDS011;6680;53.220;10.402;2023-10-19T13:19:15;18.90;;;13.17;;
13228;SDS011;6680;53.220;10.402;2023-10-19T13:21:45;20.13;;;14.07;;
13228;SDS011;6680;53.220;10.402;2023-10-19T13:24:14;20.63;;;14.00;;
13228;SDS011;6680;53.220;10.402;2023-10-19T13:26:41;19.50;;;13.77;;
13228;SDS011;6680;53.220;10.402;2023-10-19T13:29:11;18.63;;;13.17;;
13228;SDS011;6680;53.220;10.402;2023-10-19T13:31:41;18.57;;;12.80;;
13228;SDS011;6680;53.220;10.402;2023-10-19T13:34:14;19.10;;;13.50;;
13228;SDS011;6680;53.220;10.402;2023-10-19T13:36:41;20.73;;;13.90;;
13228;SDS011;6680;53.220;10.402;2023-10-19T13:39:09;19.87;;;13.13;;
13228;SDS011;6680;53.220;10.402;2023-10-19T13:41:41;20.57;;;13.63;;
13228;SDS011;6680;53.220;10.402;2023-10-19T13:44:08;19.13;;;12.70;;
13228;SDS011;6680;53.220;10.402;2023-10-19T13:46:35;21.83;;;14.40;;
13228;SDS011;6680;53.220;10.402;2023-10-19T13:49:03;19.43;;;13.40;;
13228;SDS011;6680;53.220;10.402;2023-10-19T13:51:30;20.00;;;13.40;;
13228;SDS011;6680;53.220;10.402;2023-10-19T13:53:58;19.80;;;12.73;;
13228;SDS011;6680;53.220;10.402;2023-10-19T13:56:25;21.17;;;13.70;;
13228;SDS011;6680;53.220;10.402;2023-10-19T13:58:52;20.37;;;12.73;;
13228;SDS011;6680;53.220;10.402;2023-10-19T14:01:19;17.83;;;12.83;;
13228;SDS011;6680;53.220;10.402;2023-10-19T14:03:50;21.33;;;13.77;;
13228;SDS011;6680;53.220;10.402;2023-10-19T14:06:21;19.33;;;13.87;;
13228;SDS011;6680;53.220;10.402;2023-10-19T14:08:49;18.50;;;13.60;;
13228;SDS011;6680;53.220;10.402;2023-10-19T14:11:16;19.43;;;13.40;;
13228;SDS011;6680;53.220;10.402;2023-10-19T14:13:43;18.13;;;14.07;;
13228;SDS011;6680;53.220;10.402;2023-10-19T14:16:10;17.40;;;12.97;;
13228;SDS011;6680;53.220;10.402;2023-10-19T14:18:37;19.80;;;12.70;;
13228;SDS011;6680;53.220;10.402;2023-10-19T14:21:12;22.00;;;13.60;;
13228;SDS011;6680;53.220;10.402;2023-10-19T14:23:43;19.63;;;12.87;;
13228;SDS011;6680;53.220;10.402;2023-10-19T14:26:10;17.73;;;12.77;;
13228;SDS011;6680;53.220;10.402;2023-10-19T14:28:38;21.27;;;13.47;;
13228;SDS011;6680;53.220;10.402;2023-10-19T14:31:06;18.63;;;12.13;;
13228;SDS011;6680;53.220;10.402;2023-10-19T14:33:33;18.43;;;12.07;;
13228;SDS011;6680;53.220;10.402;2023-10-19T14:36:01;19.20;;;13.73;;
13228;SDS011;6680;53.220;10.402;2023-10-19T14:38:29;19.90;;;13.03;;
13228;SDS011;6680;53.220;10.402;2023-10-19T14:40:57;19.97;;;13.60;;
13228;SDS011;6680;53.220;10.402;2023-10-19T14:43:24;18.03;;;12.90;;
13228;SDS011;6680;53.220;10.402;2023-10-19T14:45:54;19.10;;;13.33;;